createdAt,value
2022-12-24T00:00:31.806Z,4.25
2022-12-24T00:05:39.053Z,4.25
2022-12-24T00:10:42.575Z,4.06
2022-12-24T00:15:45.989Z,4.03
2022-12-24T00:20:50.947Z,4.11
2022-12-24T00:25:54.097Z,4.12
2022-12-24T00:30:57.525Z,3.99
2022-12-24T00:36:02.457Z,4.09
2022-12-24T00:41:06.383Z,4.27
2022-12-24T00:46:09.709Z,4.18
2022-12-24T00:51:14.671Z,4.32
2022-12-24T00:56:18.575Z,4.18
2022-12-24T01:01:22.750Z,3.97
2022-12-24T01:06:27.744Z,4.12
2022-12-24T01:11:30.811Z,4.30
2022-12-24T01:16:34.395Z,4.14
2022-12-24T01:21:39.244Z,4.19
2022-12-24T01:26:42.565Z,4.23
2022-12-24T01:31:46.011Z,4.31
2022-12-24T01:36:50.897Z,4.41
2022-12-24T01:42:11.707Z,4.28
2022-12-24T01:47:19.884Z,4.34
2022-12-24T01:52:28.225Z,4.09
2022-12-24T01:57:36.092Z,4.18
2022-12-24T02:02:41.660Z,4.02
2022-12-24T02:07:47.358Z,4.16
2022-12-24T02:12:52.537Z,4.21
2022-12-24T02:18:02.448Z,4.14
2022-12-24T02:23:28.059Z,4.20
2022-12-24T02:28:47.926Z,4.15
2022-12-24T02:34:01.874Z,4.07
2022-12-24T02:39:10.395Z,3.99
2022-12-24T02:44:13.970Z,4.09
2022-12-24T02:49:18.698Z,4.11
2022-12-24T02:54:22.077Z,4.12
2022-12-24T02:59:43.876Z,4.13
2022-12-24T03:04:56.825Z,4.06
2022-12-24T03:10:13.515Z,4.00
2022-12-24T03:15:20.185Z,3.85
2022-12-24T03:20:32.669Z,3.99
2022-12-24T03:25:40.024Z,3.84
2022-12-24T03:30:44.802Z,3.93
2022-12-24T03:35:49.523Z,3.90
2022-12-24T03:40:52.995Z,3.92
2022-12-24T03:45:56.546Z,3.96
2022-12-24T03:51:01.286Z,3.86
2022-12-24T03:56:04.960Z,3.77
2022-12-24T04:01:08.603Z,3.63
2022-12-24T04:06:16.279Z,3.77
2022-12-24T04:11:19.680Z,3.65
2022-12-24T04:16:23.293Z,3.65
2022-12-24T04:21:28.167Z,3.59
2022-12-24T04:26:31.737Z,3.65
2022-12-24T04:31:35.277Z,3.51
2022-12-24T04:36:40.385Z,3.58
2022-12-24T04:41:43.725Z,3.38
2022-12-24T04:46:47.077Z,3.42
2022-12-24T04:51:51.787Z,3.30
2022-12-24T04:56:55.393Z,3.34
2022-12-24T05:01:58.962Z,3.30
2022-12-24T05:07:03.806Z,3.25
2022-12-24T05:12:07.541Z,3.19
2022-12-24T05:17:11.188Z,3.13
2022-12-24T05:22:33.585Z,3.37
2022-12-24T05:27:37.455Z,3.13
2022-12-24T05:32:40.787Z,3.12
2022-12-24T05:37:45.542Z,3.29
2022-12-24T05:42:48.890Z,3.47
2022-12-24T05:47:52.238Z,3.51
2022-12-24T05:52:56.957Z,3.48
2022-12-24T05:58:00.263Z,3.39
2022-12-24T06:03:03.839Z,3.43
2022-12-24T06:08:08.897Z,3.47
2022-12-24T06:13:12.019Z,3.48
2022-12-24T06:18:15.318Z,3.42
2022-12-24T06:23:20.591Z,3.44
2022-12-24T06:28:24.012Z,3.32
2022-12-24T06:33:27.333Z,3.27
2022-12-24T06:38:32.781Z,3.32
2022-12-24T06:43:36.904Z,3.47
2022-12-24T06:48:40.187Z,3.51
2022-12-24T06:53:45.158Z,3.46
2022-12-24T06:58:48.808Z,3.38
2022-12-24T07:03:52.378Z,3.26
2022-12-24T07:08:57.228Z,3.15
2022-12-24T07:14:00.759Z,3.25
2022-12-24T07:19:04.784Z,3.31
2022-12-24T07:24:09.739Z,3.54
2022-12-24T07:29:12.881Z,3.54
2022-12-24T07:34:16.454Z,3.36
2022-12-24T07:39:21.209Z,3.37
2022-12-24T07:44:25.277Z,3.41
2022-12-24T07:49:28.844Z,3.35
2022-12-24T07:54:33.801Z,3.52
2022-12-24T07:59:36.853Z,3.34
2022-12-24T08:04:40.696Z,3.27
2022-12-24T08:09:46.298Z,3.29
2022-12-24T08:14:49.615Z,3.20
2022-12-24T08:19:52.917Z,3.32
2022-12-24T08:24:57.981Z,3.48
2022-12-24T08:30:01.362Z,3.09
2022-12-24T08:35:05.148Z,3.29
2022-12-24T08:40:11.473Z,3.37
2022-12-24T08:45:15.009Z,3.46
2022-12-24T08:50:18.490Z,3.47
2022-12-24T08:55:23.349Z,3.49
2022-12-24T09:00:26.431Z,3.60
2022-12-24T09:05:30.364Z,3.64
2022-12-24T09:10:35.149Z,3.60
2022-12-24T09:15:38.524Z,3.65
2022-12-24T09:20:46.719Z,3.62
2022-12-24T09:25:52.134Z,3.55
2022-12-24T09:30:59.785Z,3.51
2022-12-24T09:36:03.849Z,3.48
2022-12-24T09:41:16.093Z,3.64
2022-12-24T09:46:24.304Z,3.53
2022-12-24T09:51:33.517Z,3.59
2022-12-24T09:56:41.708Z,3.70
2022-12-24T10:01:45.331Z,3.53
2022-12-24T10:07:00.014Z,3.67
2022-12-24T10:12:10.950Z,3.60
2022-12-24T10:17:31.263Z,3.58
2022-12-24T10:22:42.484Z,3.58
2022-12-24T10:27:47.927Z,3.58
2022-12-24T10:32:54.004Z,3.53
2022-12-24T10:37:58.576Z,3.59
2022-12-24T10:43:03.447Z,3.56
2022-12-24T10:48:13.554Z,3.70
2022-12-24T10:53:21.624Z,3.65
2022-12-24T10:58:26.532Z,3.73
2022-12-24T11:03:33.425Z,3.74
2022-12-24T11:08:37.992Z,3.60
2022-12-24T11:13:46.216Z,3.75
2022-12-24T11:18:52.627Z,3.69
2022-12-24T11:23:58.757Z,3.60
2022-12-24T11:29:15.145Z,3.70
2022-12-24T11:34:27.266Z,3.60
2022-12-24T11:39:30.693Z,3.33
2022-12-24T11:44:35.969Z,3.71
2022-12-24T11:49:39.455Z,3.57
2022-12-24T11:54:53.054Z,3.69
2022-12-24T11:59:57.849Z,3.55
2022-12-24T12:05:10.288Z,3.57
2022-12-24T12:10:25.780Z,3.76
2022-12-24T12:15:35.679Z,3.67
2022-12-24T12:20:43.116Z,3.75
2022-12-24T12:25:55.461Z,3.95
2022-12-24T12:31:07.035Z,3.72
2022-12-24T12:36:17.235Z,3.79
2022-12-24T12:41:28.638Z,3.95
2022-12-24T12:46:45.243Z,4.03
2022-12-24T12:51:58.191Z,4.16
2022-12-24T12:57:09.038Z,4.18
2022-12-24T13:02:30.074Z,4.27
2022-12-24T13:07:53.128Z,4.31
2022-12-24T13:13:20.615Z,4.32
2022-12-24T13:18:54.481Z,4.48
2022-12-24T13:24:08.143Z,4.43
2022-12-24T13:29:39.621Z,4.39
2022-12-24T13:34:50.108Z,4.51
2022-12-24T13:40:17.102Z,4.46
2022-12-24T13:45:49.700Z,4.56
2022-12-24T13:50:56.738Z,4.45
2022-12-24T13:56:07.753Z,4.49
2022-12-24T14:01:14.794Z,4.46
2022-12-24T14:06:26.485Z,4.56
2022-12-24T14:11:34.603Z,4.42
2022-12-24T14:16:49.997Z,4.53
2022-12-24T14:22:02.647Z,4.45
2022-12-24T14:27:18.616Z,4.40
2022-12-24T14:32:22.015Z,4.43
2022-12-24T14:37:32.984Z,4.50
2022-12-24T14:42:46.576Z,4.54
2022-12-24T14:47:57.921Z,4.54
2022-12-24T14:53:19.067Z,4.66
2022-12-24T14:58:26.450Z,4.57
2022-12-24T15:03:32.447Z,4.52
2022-12-24T15:08:41.793Z,4.51
2022-12-24T15:13:49.359Z,4.58
2022-12-24T15:18:56.908Z,4.53
2022-12-24T15:24:03.171Z,4.58
2022-12-24T15:29:15.952Z,4.69
2022-12-24T15:34:28.138Z,4.51
2022-12-24T15:39:33.423Z,4.50
2022-12-24T15:44:39.084Z,4.61
2022-12-24T15:49:47.602Z,4.60
2022-12-24T15:54:57.675Z,4.48
2022-12-24T16:00:02.706Z,4.61
2022-12-24T16:05:30.507Z,4.52
2022-12-24T16:10:36.015Z,4.53
2022-12-24T16:15:49.726Z,4.50
2022-12-24T16:20:55.544Z,4.40
2022-12-24T16:26:01.043Z,4.42
2022-12-24T16:31:05.093Z,4.32
2022-12-24T16:36:09.117Z,4.35
2022-12-24T16:41:14.117Z,4.36
2022-12-24T16:46:17.777Z,4.15
2022-12-24T16:51:21.214Z,4.25
2022-12-24T16:56:26.155Z,4.18
2022-12-24T17:01:29.302Z,4.17
2022-12-24T17:06:32.876Z,4.01
2022-12-24T17:11:37.784Z,4.06
2022-12-24T17:16:40.816Z,4.19
2022-12-24T17:21:44.343Z,4.10
2022-12-24T17:26:49.301Z,4.07
2022-12-24T17:31:53.329Z,4.08
2022-12-24T17:36:56.815Z,4.07
2022-12-24T17:42:01.857Z,4.17
2022-12-24T17:47:05.494Z,4.16
2022-12-24T17:52:08.809Z,3.95
2022-12-24T17:57:13.746Z,3.94
2022-12-24T18:02:17.300Z,3.54
2022-12-24T18:07:20.723Z,3.39
2022-12-24T18:12:25.836Z,3.44
2022-12-24T18:17:29.343Z,3.39
2022-12-24T18:22:32.748Z,3.39
2022-12-24T18:27:38.153Z,3.42
2022-12-24T18:32:41.698Z,3.40
2022-12-24T18:37:45.037Z,3.34
2022-12-24T18:42:49.828Z,3.26
2022-12-24T18:47:53.146Z,3.18
2022-12-24T18:52:56.638Z,3.22
2022-12-24T18:58:01.377Z,3.25
2022-12-24T19:03:05.065Z,3.09
2022-12-24T19:08:37.624Z,2.93
2022-12-24T19:13:33.452Z,3.08
2022-12-24T19:18:36.513Z,3.20
2022-12-24T19:23:40.062Z,3.05
2022-12-24T19:28:45.255Z,3.17
2022-12-24T19:33:50.488Z,3.25
2022-12-24T19:38:54.313Z,3.28
2022-12-24T19:44:01.208Z,3.21
2022-12-24T19:49:06.946Z,3.29
2022-12-24T19:54:18.690Z,3.26
2022-12-24T19:59:24.013Z,3.15
2022-12-24T20:04:27.512Z,3.25
2022-12-24T20:09:32.919Z,3.30
2022-12-24T20:14:37.833Z,3.39
2022-12-24T20:19:42.537Z,3.28
2022-12-24T20:24:46.203Z,3.20
2022-12-24T20:29:51.000Z,3.29
2022-12-24T20:34:54.525Z,3.34
2022-12-24T20:39:58.006Z,3.41
2022-12-24T20:45:04.494Z,3.42
2022-12-24T20:50:09.026Z,3.44
2022-12-24T20:55:12.445Z,3.41
2022-12-24T21:00:18.605Z,3.49
2022-12-24T21:05:22.120Z,3.44
2022-12-24T21:10:30.706Z,3.44
2022-12-24T21:15:40.593Z,3.40
2022-12-24T21:20:44.089Z,3.39
2022-12-24T21:25:57.870Z,3.24
2022-12-24T21:31:02.887Z,3.21
2022-12-24T21:36:06.589Z,3.12
2022-12-24T21:41:12.459Z,3.08
2022-12-24T21:46:20.209Z,3.01
2022-12-24T21:51:24.422Z,2.90
2022-12-24T21:56:27.887Z,2.79
2022-12-24T22:01:32.867Z,2.81
2022-12-24T22:06:53.721Z,2.73
2022-12-24T22:11:57.201Z,2.64
2022-12-24T22:17:02.192Z,2.66
2022-12-24T22:22:05.710Z,2.70
2022-12-24T22:27:09.125Z,2.58
2022-12-24T22:32:13.989Z,2.55
2022-12-24T22:37:17.128Z,2.50
2022-12-24T22:42:20.989Z,2.40
2022-12-24T22:47:25.790Z,2.40
2022-12-24T22:52:29.614Z,2.22
2022-12-24T22:57:33.160Z,2.07
2022-12-24T23:02:38.186Z,2.04
2022-12-24T23:07:41.851Z,2.03
2022-12-24T23:13:02.833Z,1.93
2022-12-24T23:18:08.758Z,1.89
2022-12-24T23:23:12.708Z,1.78
2022-12-24T23:28:16.043Z,1.48
2022-12-24T23:33:21.049Z,1.79
2022-12-24T23:38:24.343Z,1.80
2022-12-24T23:43:27.910Z,1.56
2022-12-24T23:48:32.971Z,1.62
2022-12-24T23:53:36.524Z,1.60
2022-12-24T23:58:40.668Z,1.50
